createdAt,value
2018-09-19T00:00:05.579Z,18.10
2018-09-19T00:05:08.836Z,18.20
2018-09-19T00:10:12.128Z,18.20
2018-09-19T00:15:15.391Z,18.10
2018-09-19T00:20:18.765Z,17.90
2018-09-19T00:25:21.965Z,17.60
2018-09-19T00:30:25.700Z,17.50
2018-09-19T00:35:29.030Z,17.30
2018-09-19T00:45:35.226Z,17.30
2018-09-19T00:50:38.503Z,17.50
2018-09-19T00:55:41.776Z,17.40
2018-09-19T01:00:45.035Z,17.40
2018-09-19T01:05:48.341Z,17.20
2018-09-19T01:10:51.610Z,17.10
2018-09-19T01:15:54.882Z,17.00
2018-09-19T01:20:58.151Z,17.00
2018-09-19T01:26:01.403Z,17.10
2018-09-19T01:31:04.680Z,17.20
2018-09-19T01:36:07.940Z,17.10
2018-09-19T01:41:11.204Z,17.10
2018-09-19T01:46:14.454Z,17.00
2018-09-19T01:51:17.718Z,17.00
2018-09-19T01:56:20.996Z,17.20
2018-09-19T02:01:24.280Z,16.90
2018-09-19T02:06:27.557Z,16.90
2018-09-19T02:11:32.129Z,16.80
2018-09-19T02:16:35.461Z,16.80
2018-09-19T02:21:38.766Z,16.90
2018-09-19T02:26:42.047Z,17.00
2018-09-19T02:31:45.345Z,17.10
2018-09-19T02:41:51.690Z,17.20
2018-09-19T02:46:55.032Z,17.30
2018-09-19T02:51:59.209Z,17.10
2018-09-19T02:57:02.495Z,17.00
2018-09-19T03:02:05.793Z,16.80
2018-09-19T03:07:09.077Z,16.80
2018-09-19T03:12:12.369Z,16.70
2018-09-19T03:17:15.717Z,16.60
2018-09-19T03:22:18.980Z,16.60
2018-09-19T03:27:22.267Z,16.60
2018-09-19T03:32:25.522Z,16.60
2018-09-19T03:37:28.798Z,16.60
2018-09-19T03:42:32.070Z,16.50
2018-09-19T03:52:38.344Z,15.90
2018-09-19T03:57:41.621Z,15.90
2018-09-19T04:02:44.881Z,15.90
2018-09-19T04:07:48.188Z,16.10
2018-09-19T04:12:51.484Z,16.10
2018-09-19T04:17:54.809Z,16.10
2018-09-19T04:22:58.033Z,16.00
2018-09-19T04:28:01.303Z,16.00
2018-09-19T04:33:04.593Z,16.10
2018-09-19T04:38:07.937Z,16.20
2018-09-19T04:43:11.205Z,16.30
2018-09-19T04:48:14.479Z,16.30
2018-09-19T04:58:20.731Z,16.30
2018-09-19T05:03:23.989Z,16.20
2018-09-19T05:13:31.009Z,16.30
2018-09-19T05:23:37.247Z,16.20
2018-09-19T05:28:40.695Z,16.20
2018-09-19T05:33:44.069Z,16.20
2018-09-19T05:38:47.363Z,16.20
2018-09-19T05:43:50.634Z,16.20
2018-09-19T05:48:53.890Z,16.30
2018-09-19T05:53:57.159Z,16.30
2018-09-19T05:59:00.423Z,16.40
2018-09-19T06:04:03.728Z,16.40
2018-09-19T06:09:09.235Z,16.50
2018-09-19T06:14:12.509Z,16.50
2018-09-19T06:19:15.803Z,16.50
2018-09-19T06:24:19.093Z,16.50
2018-09-19T06:29:22.357Z,16.50
2018-09-19T06:34:25.667Z,16.50
2018-09-19T06:39:28.921Z,16.50
2018-09-19T06:44:32.200Z,16.50
2018-09-19T06:49:35.462Z,16.80
2018-09-19T06:54:38.741Z,16.80
2018-09-19T06:59:42.100Z,16.90
2018-09-19T07:04:45.321Z,17.00
2018-09-19T07:09:48.622Z,17.10
2018-09-19T07:14:51.899Z,17.20
2018-09-19T07:19:55.196Z,17.20
2018-09-19T07:24:58.460Z,17.40
2018-09-19T07:30:01.926Z,17.60
2018-09-19T07:35:05.438Z,17.70
2018-09-19T07:40:08.735Z,17.80
2018-09-19T07:45:11.994Z,17.90
2018-09-19T07:50:15.259Z,18.00
2018-09-19T07:55:18.555Z,18.10
2018-09-19T08:00:21.821Z,18.00
2018-09-19T08:05:25.056Z,17.70
2018-09-19T08:10:28.342Z,17.90
2018-09-19T08:15:31.600Z,17.80
2018-09-19T08:20:34.866Z,17.80
2018-09-19T08:25:38.143Z,17.90
2018-09-19T08:30:41.406Z,18.30
2018-09-19T08:35:44.683Z,18.60
2018-09-19T08:40:47.925Z,18.80
2018-09-19T08:45:51.255Z,18.90
2018-09-19T08:50:54.495Z,18.90
2018-09-19T08:55:57.771Z,18.90
2018-09-19T09:01:01.038Z,19.10
2018-09-19T09:06:04.343Z,19.20
2018-09-19T09:11:07.605Z,19.20
2018-09-19T09:16:10.876Z,19.40
2018-09-19T09:21:14.177Z,19.80
2018-09-19T09:26:17.480Z,19.90
2018-09-19T09:31:20.723Z,19.80
2018-09-19T09:36:24.004Z,20.20
2018-09-19T09:41:27.297Z,20.40
2018-09-19T09:46:30.668Z,21.10
2018-09-19T09:51:33.962Z,22.00
2018-09-19T09:56:37.227Z,22.10
2018-09-19T10:01:40.511Z,22.40
2018-09-19T10:06:43.798Z,22.20
2018-09-19T10:11:47.100Z,22.50
2018-09-19T10:16:50.366Z,22.90
2018-09-19T10:21:53.622Z,23.30
2018-09-19T10:26:56.883Z,23.60
2018-09-19T10:32:00.131Z,23.30
2018-09-19T10:37:03.399Z,22.90
2018-09-19T10:42:06.689Z,22.40
2018-09-19T10:47:10.001Z,22.30
2018-09-19T10:52:13.302Z,22.20
2018-09-19T10:57:16.571Z,22.10
2018-09-19T11:02:19.840Z,21.90
2018-09-19T11:07:23.099Z,21.90
2018-09-19T11:12:26.367Z,23.00
2018-09-19T11:17:29.623Z,24.00
2018-09-19T11:22:32.904Z,24.90
2018-09-19T11:27:36.198Z,25.20
2018-09-19T11:32:39.461Z,25.60
2018-09-19T11:37:42.748Z,25.50
2018-09-19T11:42:46.022Z,25.80
2018-09-19T11:47:49.295Z,25.60
2018-09-19T11:52:52.554Z,25.30
2018-09-19T11:57:55.868Z,26.30
2018-09-19T12:02:59.098Z,26.60
2018-09-19T12:08:02.403Z,27.10
2018-09-19T12:13:05.716Z,27.10
2018-09-19T12:18:08.987Z,27.10
2018-09-19T12:23:12.259Z,27.50
2018-09-19T12:28:15.519Z,28.30
2018-09-19T12:33:18.849Z,28.50
2018-09-19T12:38:22.067Z,28.00
2018-09-19T12:43:25.335Z,28.90
2018-09-19T12:48:28.599Z,28.50
2018-09-19T12:53:31.868Z,26.90
2018-09-19T12:58:35.152Z,26.10
2018-09-19T13:03:38.450Z,27.00
2018-09-19T13:08:41.732Z,27.00
2018-09-19T13:13:44.989Z,28.10
2018-09-19T13:18:48.313Z,29.80
2018-09-19T13:23:52.226Z,30.70
2018-09-19T13:28:55.511Z,30.40
2018-09-19T13:33:59.597Z,28.30
2018-09-19T13:39:02.877Z,29.00
2018-09-19T13:44:06.223Z,29.40
2018-09-19T13:49:22.768Z,29.50
2018-09-19T13:54:26.035Z,28.60
2018-09-19T13:59:29.285Z,29.50
2018-09-19T14:04:32.546Z,29.80
2018-09-19T14:09:35.825Z,30.30
2018-09-19T14:14:39.079Z,30.60
2018-09-19T14:19:42.356Z,30.90
2018-09-19T14:24:45.606Z,30.40
2018-09-19T14:29:48.903Z,30.80
2018-09-19T14:34:52.176Z,30.70
2018-09-19T14:39:55.449Z,31.10
2018-09-19T14:44:58.714Z,31.10
2018-09-19T14:50:01.976Z,31.20
2018-09-19T14:55:05.263Z,30.30
2018-09-19T15:00:08.887Z,30.40
2018-09-19T15:05:12.094Z,30.50
2018-09-19T15:10:15.355Z,30.40
2018-09-19T15:15:18.633Z,31.00
2018-09-19T15:20:21.887Z,31.50
2018-09-19T15:25:25.132Z,31.20
2018-09-19T15:30:28.381Z,31.90
2018-09-19T15:35:31.651Z,31.20
2018-09-19T15:40:35.005Z,31.60
2018-09-19T15:45:38.333Z,31.30
2018-09-19T15:50:41.632Z,31.20
2018-09-19T15:55:45.117Z,30.90
2018-09-19T16:00:48.759Z,30.70
2018-09-19T16:05:52.206Z,30.00
2018-09-19T16:10:55.504Z,28.40
2018-09-19T16:15:58.826Z,27.00
2018-09-19T16:21:02.152Z,26.10
2018-09-19T16:26:05.556Z,25.40
2018-09-19T16:31:09.171Z,25.20
2018-09-19T16:36:12.431Z,24.80
2018-09-19T16:41:15.722Z,24.60
2018-09-19T16:46:19.807Z,24.30
2018-09-19T16:51:23.090Z,24.20
2018-09-19T16:56:26.376Z,24.00
2018-09-19T17:01:29.954Z,23.80
2018-09-19T17:16:08.402Z,23.20
2018-09-19T17:21:11.838Z,22.90
2018-09-19T17:26:16.030Z,22.70
2018-09-19T17:31:19.587Z,22.60
2018-09-19T17:36:23.139Z,22.50
2018-09-19T17:41:26.443Z,22.30
2018-09-19T17:46:29.949Z,22.00
2018-09-19T17:51:33.466Z,21.90
2018-09-19T17:56:37.090Z,21.70
2018-09-19T18:01:40.717Z,21.60
2018-09-19T18:06:44.016Z,21.50
2018-09-19T18:11:47.301Z,21.30
2018-09-19T18:16:50.620Z,21.20
2018-09-19T18:21:53.890Z,21.20
2018-09-19T18:26:58.111Z,21.00
2018-09-19T18:32:01.399Z,21.00
2018-09-19T18:37:04.776Z,20.90
2018-09-19T18:42:08.516Z,20.80
2018-09-19T18:47:12.234Z,20.70
2018-09-19T18:52:15.686Z,20.60
2018-09-19T18:57:18.939Z,20.40
2018-09-19T19:02:22.774Z,20.30
2018-09-19T19:07:26.078Z,20.00
2018-09-19T19:12:29.582Z,19.80
2018-09-19T19:17:32.886Z,19.60
2018-09-19T19:22:36.873Z,19.50
2018-09-19T19:27:40.248Z,19.30
2018-09-19T19:32:43.667Z,19.30
2018-09-19T19:37:48.649Z,19.20
2018-09-19T19:52:58.449Z,18.80
2018-09-19T19:58:01.869Z,18.70
2018-09-19T20:03:05.576Z,18.80
2018-09-19T20:13:12.095Z,18.60
2018-09-19T20:18:16.323Z,18.60
2018-09-19T20:23:20.262Z,18.50
2018-09-19T20:28:24.187Z,18.60
2018-09-19T20:33:28.262Z,18.50
2018-09-19T20:38:31.639Z,18.40
2018-09-19T20:43:35.375Z,18.20
2018-09-19T20:48:39.720Z,18.00
2018-09-19T20:58:46.271Z,18.00
2018-09-19T21:08:53.766Z,17.90
2018-09-19T21:19:00.909Z,17.90
2018-09-19T21:24:04.677Z,17.90
2018-09-19T21:29:07.988Z,17.80
2018-09-19T21:34:11.252Z,17.70
2018-09-19T21:39:14.738Z,17.50
2018-09-19T21:44:18.035Z,17.60
2018-09-19T21:49:21.302Z,17.60
2018-09-19T21:54:24.567Z,17.40
2018-09-19T22:04:30.834Z,17.30
2018-09-19T22:09:34.085Z,17.20
2018-09-19T22:19:40.556Z,17.10
2018-09-19T22:29:46.821Z,17.00
2018-09-19T22:34:50.165Z,17.00
2018-09-19T22:39:53.426Z,17.00
2018-09-19T22:44:56.687Z,16.80
2018-09-19T22:49:59.939Z,16.80
2018-09-19T22:55:03.194Z,16.80
2018-09-19T23:00:06.538Z,16.80
2018-09-19T23:05:09.791Z,16.80
2018-09-19T23:15:16.107Z,16.70
2018-09-19T23:20:19.375Z,16.70
2018-09-19T23:25:22.648Z,16.60
2018-09-19T23:30:25.912Z,16.60
2018-09-19T23:35:29.179Z,16.60
2018-09-19T23:40:32.465Z,16.50
2018-09-19T23:45:35.737Z,16.50
2018-09-19T23:50:39.010Z,16.40
2018-09-19T23:55:42.291Z,16.40
